Time;durP1;ratioP1;P1;durP2;ratioP2;P2;SDS_P1;SDS_P2;PMS_P1;PMS_P2;Temp;Humidity;BMP_temperature;BMP_pressure;BME280_temperature;BME280_humidity;BME280_pressure;Samples;Min_cycle;Max_cycle;Signal;HPM_P1;HPM_P2
2023/12/02 00:00:36;;;;;;;156.50;55.03;;;;;;;;;;5074521;28;20207;-74
2023/12/02 00:03:23;;;;;;;147.47;52.73;;;;;;;;;;5076166;28;20657;-74
2023/12/02 00:05:50;;;;;;;143.27;50.53;;;;;;;;;;5075993;28;20586;-74
2023/12/02 00:08:18;;;;;;;135.40;50.83;;;;;;;;;;5075824;28;20234;-74
2023/12/02 00:10:45;;;;;;;161.40;59.30;;;;;;;;;;5075875;28;20199;-74
2023/12/02 00:13:12;;;;;;;185.47;62.53;;;;;;;;;;5076145;28;20195;-74
2023/12/02 00:15:39;;;;;;;162.63;57.87;;;;;;;;;;5075561;28;20202;-74
2023/12/02 00:18:07;;;;;;;142.83;55.47;;;;;;;;;;5074697;28;20204;-74
2023/12/02 00:20:34;;;;;;;181.90;62.90;;;;;;;;;;5075811;28;20195;-74
2023/12/02 00:23:02;;;;;;;148.63;52.57;;;;;;;;;;5075048;28;20285;-74
2023/12/02 00:25:29;;;;;;;148.37;52.40;;;;;;;;;;5073866;28;20715;-74
2023/12/02 00:27:56;;;;;;;145.40;50.37;;;;;;;;;;5075618;28;20590;-74
2023/12/02 00:30:23;;;;;;;160.13;55.90;;;;;;;;;;5075759;28;20236;-74
2023/12/02 00:32:50;;;;;;;166.60;56.23;;;;;;;;;;5075860;28;20207;-74
2023/12/02 00:35:17;;;;;;;152.90;54.07;;;;;;;;;;5075527;28;20278;-74
2023/12/02 00:37:44;;;;;;;155.03;55.73;;;;;;;;;;5075531;28;20191;-74
2023/12/02 00:40:11;;;;;;;155.17;57.17;;;;;;;;;;5075326;28;20215;-73
2023/12/02 00:42:38;;;;;;;156.87;58.03;;;;;;;;;;5075196;28;20199;-73
2023/12/02 00:45:06;;;;;;;152.83;55.80;;;;;;;;;;5075449;28;20230;-74
2023/12/02 00:47:34;;;;;;;143.17;52.03;;;;;;;;;;5075459;28;20249;-73
2023/12/02 00:50:01;;;;;;;156.10;55.90;;;;;;;;;;5074306;28;20249;-74
2023/12/02 00:52:28;;;;;;;144.00;54.53;;;;;;;;;;5075136;28;20191;-73
2023/12/02 00:54:55;;;;;;;175.73;59.77;;;;;;;;;;5075163;28;20652;-73
2023/12/02 00:57:22;;;;;;;163.40;56.60;;;;;;;;;;5075041;28;20261;-74
2023/12/02 00:59:49;;;;;;;155.97;53.17;;;;;;;;;;5075018;28;20712;-73
2023/12/02 01:02:16;;;;;;;154.73;54.13;;;;;;;;;;5075228;28;20199;-73
2023/12/02 01:04:43;;;;;;;161.97;55.87;;;;;;;;;;5074644;28;20230;-73
2023/12/02 01:07:11;;;;;;;155.93;55.00;;;;;;;;;;5075239;28;20513;-73
2023/12/02 01:09:37;;;;;;;159.53;56.33;;;;;;;;;;5074734;28;20199;-73
2023/12/02 01:12:05;;;;;;;194.20;62.33;;;;;;;;;;5074990;28;20203;-73
2023/12/02 01:14:32;;;;;;;172.47;61.10;;;;;;;;;;5074951;28;20276;-74
2023/12/02 01:17:00;;;;;;;194.67;63.60;;;;;;;;;;5074887;28;20203;-74
2023/12/02 01:19:27;;;;;;;208.37;64.33;;;;;;;;;;5074673;28;20199;-75
2023/12/02 01:21:54;;;;;;;166.87;55.90;;;;;;;;;;5074638;28;20641;-74
2023/12/02 01:24:21;;;;;;;195.57;70.10;;;;;;;;;;5074678;28;20330;-74
2023/12/02 01:26:49;;;;;;;164.93;57.03;;;;;;;;;;5074545;28;20204;-74
2023/12/02 01:29:15;;;;;;;162.53;55.30;;;;;;;;;;5074650;28;20276;-74
2023/12/02 01:31:43;;;;;;;165.83;55.13;;;;;;;;;;5074370;28;20199;-74
2023/12/02 01:34:10;;;;;;;144.17;52.37;;;;;;;;;;5074337;28;20195;-74
2023/12/02 01:36:37;;;;;;;166.43;59.60;;;;;;;;;;5074248;28;20215;-74
2023/12/02 01:39:04;;;;;;;156.87;55.57;;;;;;;;;;5074228;28;20235;-74
2023/12/02 01:41:31;;;;;;;144.37;52.90;;;;;;;;;;5074010;28;20200;-74
2023/12/02 01:43:58;;;;;;;140.27;50.77;;;;;;;;;;5073965;28;20227;-74
2023/12/02 01:46:26;;;;;;;141.23;52.67;;;;;;;;;;5073955;28;20637;-74
2023/12/02 01:48:54;;;;;;;132.17;50.10;;;;;;;;;;5074011;28;20203;-74
2023/12/02 01:51:21;;;;;;;138.73;49.43;;;;;;;;;;5072682;28;20261;-74
2023/12/02 01:53:48;;;;;;;144.67;51.17;;;;;;;;;;5073779;28;20199;-73
2023/12/02 01:56:16;;;;;;;136.20;51.00;;;;;;;;;;5074071;28;20187;-74
2023/12/02 01:58:43;;;;;;;150.23;54.30;;;;;;;;;;5073973;28;20264;-74
2023/12/02 02:01:10;;;;;;;141.97;51.43;;;;;;;;;;5074139;28;20191;-74
2023/12/02 02:03:37;;;;;;;139.07;52.20;;;;;;;;;;5073747;28;20195;-74
2023/12/02 02:06:08;;;;;;;141.53;51.90;;;;;;;;;;5073594;28;20223;-74
2023/12/02 02:08:35;;;;;;;149.17;52.17;;;;;;;;;;5074076;28;20252;-74
2023/12/02 02:11:02;;;;;;;148.27;52.50;;;;;;;;;;5073883;28;20202;-74
2023/12/02 02:13:29;;;;;;;157.23;53.90;;;;;;;;;;5073537;28;20203;-74
2023/12/02 02:15:56;;;;;;;164.40;54.73;;;;;;;;;;5072450;28;20202;-74
2023/12/02 02:18:23;;;;;;;163.03;54.90;;;;;;;;;;5073492;28;20207;-74
2023/12/02 02:20:52;;;;;;;151.87;53.80;;;;;;;;;;5073439;28;20227;-74
2023/12/02 02:23:20;;;;;;;159.90;52.37;;;;;;;;;;5072042;28;20575;-74
2023/12/02 02:25:50;;;;;;;146.37;54.07;;;;;;;;;;5073768;28;20215;-74
2023/12/02 02:28:21;;;;;;;155.23;51.73;;;;;;;;;;5073615;28;20206;-74
2023/12/02 02:30:48;;;;;;;138.20;50.40;;;;;;;;;;5073527;28;20191;-74
2023/12/02 02:33:16;;;;;;;135.73;50.53;;;;;;;;;;5073440;28;20748;-74
2023/12/02 02:35:44;;;;;;;139.23;51.50;;;;;;;;;;5072390;28;20253;-74
2023/12/02 02:38:11;;;;;;;151.43;50.73;;;;;;;;;;5073316;28;20260;-74
2023/12/02 02:40:38;;;;;;;152.27;52.97;;;;;;;;;;5072027;28;20246;-74
2023/12/02 02:43:06;;;;;;;145.73;52.17;;;;;;;;;;5073371;28;20202;-74
2023/12/02 02:45:33;;;;;;;156.00;54.50;;;;;;;;;;5073029;28;20211;-73
2023/12/02 02:48:00;;;;;;;167.00;56.93;;;;;;;;;;5075386;28;20542;-73
2023/12/02 02:50:27;;;;;;;156.77;56.47;;;;;;;;;;5077588;28;20203;-74
2023/12/02 02:52:54;;;;;;;160.53;54.07;;;;;;;;;;5077543;28;20214;-74
2023/12/02 02:55:21;;;;;;;169.87;57.17;;;;;;;;;;5077155;28;20277;-74
2023/12/02 02:57:49;;;;;;;143.70;55.30;;;;;;;;;;5077386;28;20195;-73
2023/12/02 03:00:16;;;;;;;150.13;54.07;;;;;;;;;;5077013;28;20207;-73
2023/12/02 03:02:44;;;;;;;142.63;52.63;;;;;;;;;;5077248;28;20245;-74
2023/12/02 03:05:10;;;;;;;152.30;53.53;;;;;;;;;;5076036;28;20211;-73
2023/12/02 03:07:38;;;;;;;141.67;53.87;;;;;;;;;;5077131;28;20206;-74
2023/12/02 03:10:07;;;;;;;149.63;53.97;;;;;;;;;;5076945;28;20199;-73
2023/12/02 03:12:34;;;;;;;158.70;53.40;;;;;;;;;;5075933;28;20195;-74
2023/12/02 03:15:02;;;;;;;153.73;54.47;;;;;;;;;;5077503;28;20210;-73
2023/12/02 03:17:29;;;;;;;145.70;53.57;;;;;;;;;;5077257;28;20196;-74
2023/12/02 03:19:56;;;;;;;151.87;53.40;;;;;;;;;;5077213;28;20195;-74
2023/12/02 03:22:23;;;;;;;149.47;51.30;;;;;;;;;;5076615;28;20253;-74
2023/12/02 03:24:51;;;;;;;147.17;52.60;;;;;;;;;;5075543;28;20243;-73
2023/12/02 03:27:18;;;;;;;166.47;54.67;;;;;;;;;;5075573;28;20526;-74
2023/12/02 03:29:45;;;;;;;162.20;52.87;;;;;;;;;;5077009;28;20199;-74
2023/12/02 03:32:12;;;;;;;142.80;52.33;;;;;;;;;;5076597;28;20203;-74
2023/12/02 03:34:39;;;;;;;145.33;51.70;;;;;;;;;;5076850;28;20191;-74
2023/12/02 03:37:07;;;;;;;147.77;52.57;;;;;;;;;;5076608;28;20198;-74
2023/12/02 03:39:34;;;;;;;150.20;50.77;;;;;;;;;;5076514;28;20261;-74
2023/12/02 03:42:01;;;;;;;156.53;51.70;;;;;;;;;;5076446;28;20203;-74
2023/12/02 03:44:29;;;;;;;146.67;53.60;;;;;;;;;;5075505;28;20200;-74
2023/12/02 03:46:56;;;;;;;136.00;46.30;;;;;;;;;;5076760;28;20641;-73
2023/12/02 03:49:23;;;;;;;134.63;49.53;;;;;;;;;;5076275;28;20203;-74
2023/12/02 03:51:51;;;;;;;144.17;49.63;;;;;;;;;;5076349;28;20222;-74
2023/12/02 03:54:18;;;;;;;139.07;49.17;;;;;;;;;;5075955;28;20195;-74
2023/12/02 03:56:45;;;;;;;125.03;46.23;;;;;;;;;;5076300;28;20195;-74
2023/12/02 03:59:12;;;;;;;144.77;49.27;;;;;;;;;;5075173;28;20328;-73
2023/12/02 04:01:41;;;;;;;131.57;48.23;;;;;;;;;;5075980;28;20202;-74
2023/12/02 04:04:08;;;;;;;143.73;49.10;;;;;;;;;;5076393;28;20194;-74
2023/12/02 04:06:36;;;;;;;149.43;48.37;;;;;;;;;;5075824;28;20223;-74
2023/12/02 04:09:05;;;;;;;128.27;46.20;;;;;;;;;;5076005;28;20213;-74
2023/12/02 04:11:32;;;;;;;130.70;47.50;;;;;;;;;;5074706;28;20257;-74
2023/12/02 04:13:59;;;;;;;137.27;47.37;;;;;;;;;;5076107;28;20211;-74
2023/12/02 04:16:27;;;;;;;129.60;46.17;;;;;;;;;;5075695;28;20207;-74
2023/12/02 04:18:54;;;;;;;140.60;47.70;;;;;;;;;;5075917;28;20199;-74
2023/12/02 04:21:21;;;;;;;148.27;48.63;;;;;;;;;;5075510;28;20199;-73
2023/12/02 04:23:48;;;;;;;134.70;46.13;;;;;;;;;;5075708;28;20231;-73
2023/12/02 04:26:15;;;;;;;123.73;44.27;;;;;;;;;;5074149;28;20570;-74
2023/12/02 04:28:42;;;;;;;129.73;45.03;;;;;;;;;;5075769;28;20202;-74
2023/12/02 04:31:09;;;;;;;127.20;40.83;;;;;;;;;;5075636;28;20188;-74
2023/12/02 04:33:36;;;;;;;133.33;42.63;;;;;;;;;;5075560;28;20203;-74
2023/12/02 04:36:04;;;;;;;119.87;42.17;;;;;;;;;;5075578;28;20195;-74
2023/12/02 04:38:32;;;;;;;141.70;43.10;;;;;;;;;;5075675;28;20261;-74
2023/12/02 04:40:59;;;;;;;126.40;44.13;;;;;;;;;;5056630;28;20707;-74
2023/12/02 04:43:26;;;;;;;131.67;45.13;;;;;;;;;;5055438;28;20564;-74
2023/12/02 04:45:53;;;;;;;133.47;45.23;;;;;;;;;;5055158;28;20636;-73
2023/12/02 04:48:20;;;;;;;127.90;42.23;;;;;;;;;;5054902;28;20200;-74
2023/12/02 04:50:48;;;;;;;128.20;41.83;;;;;;;;;;5054320;28;20721;-74
2023/12/02 04:53:16;;;;;;;131.40;43.47;;;;;;;;;;5054862;28;20615;-74
2023/12/02 04:55:43;;;;;;;121.07;42.40;;;;;;;;;;5055269;28;20588;-73
2023/12/02 04:58:10;;;;;;;138.80;42.27;;;;;;;;;;5055159;28;20196;-73
2023/12/02 05:00:37;;;;;;;124.80;41.47;;;;;;;;;;5055155;28;20536;-73
2023/12/02 05:03:05;;;;;;;132.77;44.43;;;;;;;;;;5054937;28;20192;-74
2023/12/02 05:05:33;;;;;;;115.30;43.13;;;;;;;;;;5054733;28;20227;-74
2023/12/02 05:08:03;;;;;;;136.73;43.23;;;;;;;;;;5054790;28;20207;-74
2023/12/02 05:10:30;;;;;;;121.60;41.57;;;;;;;;;;5054413;28;20206;-74
2023/12/02 05:12:57;;;;;;;127.30;42.30;;;;;;;;;;5054792;28;20269;-74
2023/12/02 05:15:25;;;;;;;130.13;43.83;;;;;;;;;;5054488;28;20204;-74
2023/12/02 05:17:52;;;;;;;144.03;42.33;;;;;;;;;;5054424;28;20202;-73
2023/12/02 05:20:19;;;;;;;132.20;42.27;;;;;;;;;;5054648;28;20265;-74
2023/12/02 05:22:46;;;;;;;133.43;42.30;;;;;;;;;;5054324;28;20200;-74
2023/12/02 05:25:17;;;;;;;118.60;39.67;;;;;;;;;;5054554;28;20258;-73
2023/12/02 05:27:44;;;;;;;119.23;41.93;;;;;;;;;;5054504;28;20200;-74
2023/12/02 05:30:12;;;;;;;128.90;41.83;;;;;;;;;;5054324;28;20200;-74
2023/12/02 05:32:40;;;;;;;144.67;42.73;;;;;;;;;;5053326;28;20234;-74
2023/12/02 05:35:10;;;;;;;133.93;43.53;;;;;;;;;;5054625;28;20200;-74
2023/12/02 05:37:38;;;;;;;134.17;43.67;;;;;;;;;;5054436;28;20203;-74
2023/12/02 05:40:08;;;;;;;131.73;41.60;;;;;;;;;;5054599;28;20230;-74
2023/12/02 05:42:34;;;;;;;132.33;40.77;;;;;;;;;;5053548;28;20212;-72
2023/12/02 05:45:02;;;;;;;128.10;41.80;;;;;;;;;;5053859;28;20192;-73
2023/12/02 05:47:29;;;;;;;133.17;40.70;;;;;;;;;;5053784;28;20223;-73
2023/12/02 05:49:56;;;;;;;118.53;40.97;;;;;;;;;;5053769;28;20535;-73
2023/12/02 05:52:23;;;;;;;143.10;41.43;;;;;;;;;;5053558;28;20210;-73
2023/12/02 05:54:51;;;;;;;131.50;40.97;;;;;;;;;;5053750;28;20201;-73
2023/12/02 05:57:18;;;;;;;133.73;42.57;;;;;;;;;;5055102;28;20231;-73
2023/12/02 05:59:45;;;;;;;127.63;42.53;;;;;;;;;;5073442;28;20544;-74
2023/12/02 06:02:12;;;;;;;131.97;42.13;;;;;;;;;;5063418;28;20644;-74
2023/12/02 06:04:39;;;;;;;127.13;41.00;;;;;;;;;;5063653;28;20196;-74
2023/12/02 06:07:06;;;;;;;123.57;41.27;;;;;;;;;;5061861;28;20213;-74
2023/12/02 06:09:33;;;;;;;131.80;39.97;;;;;;;;;;5063263;28;20252;-73
2023/12/02 06:12:00;;;;;;;126.80;38.17;;;;;;;;;;5063372;28;20202;-73
2023/12/02 06:14:28;;;;;;;132.27;39.10;;;;;;;;;;5067486;28;20683;-73
2023/12/02 06:16:59;;;;;;;117.87;38.13;;;;;;;;;;5067501;28;20246;-73
2023/12/02 06:19:26;;;;;;;134.53;38.30;;;;;;;;;;5063041;28;20192;-73
2023/12/02 06:21:53;;;;;;;113.77;39.00;;;;;;;;;;5061600;28;20200;-73
2023/12/02 06:24:21;;;;;;;124.43;40.00;;;;;;;;;;5073324;28;20242;-74
2023/12/02 06:26:48;;;;;;;144.00;40.37;;;;;;;;;;5060891;28;20239;-74
2023/12/02 06:29:15;;;;;;;124.73;38.23;;;;;;;;;;5064640;28;20222;-74
2023/12/02 06:31:42;;;;;;;131.87;40.80;;;;;;;;;;5060032;28;20326;-74
2023/12/02 06:34:09;;;;;;;115.83;38.57;;;;;;;;;;5072220;28;20215;-74
2023/12/02 06:36:36;;;;;;;110.13;38.17;;;;;;;;;;5071946;28;20237;-74
2023/12/02 06:39:04;;;;;;;120.87;38.73;;;;;;;;;;5072169;28;20254;-73
2023/12/02 06:41:31;;;;;;;123.27;41.40;;;;;;;;;;5067261;28;20789;-74
2023/12/02 06:43:58;;;;;;;123.90;41.13;;;;;;;;;;5052561;28;20228;-73
2023/12/02 06:46:26;;;;;;;125.27;42.33;;;;;;;;;;5051787;28;20262;-73
2023/12/02 06:48:53;;;;;;;106.33;37.57;;;;;;;;;;5050804;28;20251;-73
2023/12/02 06:51:21;;;;;;;139.57;40.97;;;;;;;;;;5051466;28;20238;-74
2023/12/02 06:53:48;;;;;;;124.90;40.20;;;;;;;;;;5051795;28;20716;-74
2023/12/02 06:56:21;;;;;;;131.97;38.63;;;;;;;;;;5051319;28;20246;-74
2023/12/02 06:58:52;;;;;;;122.87;39.17;;;;;;;;;;5050717;28;20232;-74
2023/12/02 07:01:23;;;;;;;139.63;41.40;;;;;;;;;;5064878;28;20298;-75
2023/12/02 07:03:50;;;;;;;130.67;40.23;;;;;;;;;;5070550;28;20202;-74
2023/12/02 07:06:17;;;;;;;131.80;41.53;;;;;;;;;;5069333;28;20223;-74
2023/12/02 07:08:45;;;;;;;128.17;39.73;;;;;;;;;;5060907;28;20203;-74
2023/12/02 07:11:12;;;;;;;136.67;41.83;;;;;;;;;;5050757;28;20188;-74
2023/12/02 07:13:39;;;;;;;141.90;44.40;;;;;;;;;;5051805;28;20192;-74
2023/12/02 07:16:07;;;;;;;123.83;41.47;;;;;;;;;;5051988;28;20210;-74
2023/12/02 07:18:34;;;;;;;122.20;40.30;;;;;;;;;;5052491;28;20658;-74
2023/12/02 07:21:01;;;;;;;121.20;41.87;;;;;;;;;;5071903;28;20187;-74
2023/12/02 07:23:28;;;;;;;128.80;42.43;;;;;;;;;;5071260;28;20297;-74
2023/12/02 07:25:56;;;;;;;116.90;37.83;;;;;;;;;;5072424;28;20211;-74
2023/12/02 07:28:23;;;;;;;115.67;40.70;;;;;;;;;;5072474;28;20204;-74
2023/12/02 07:30:50;;;;;;;120.67;40.67;;;;;;;;;;5071350;28;20527;-74
2023/12/02 07:33:21;;;;;;;120.90;40.83;;;;;;;;;;5074072;28;20230;-74
2023/12/02 07:35:48;;;;;;;123.40;40.17;;;;;;;;;;5075216;28;20249;-74
2023/12/02 07:38:16;;;;;;;139.53;39.97;;;;;;;;;;5076067;28;20203;-74
2023/12/02 07:40:43;;;;;;;127.93;41.93;;;;;;;;;;5076085;28;20282;-74
2023/12/02 07:43:10;;;;;;;126.30;40.80;;;;;;;;;;5074914;28;20200;-74
2023/12/02 07:45:37;;;;;;;114.37;40.40;;;;;;;;;;5075713;28;20218;-74
2023/12/02 07:48:04;;;;;;;136.03;41.40;;;;;;;;;;5076354;28;20195;-74
2023/12/02 07:50:32;;;;;;;141.30;43.80;;;;;;;;;;5073984;28;20192;-74
2023/12/02 07:52:59;;;;;;;129.13;41.40;;;;;;;;;;5066555;28;20189;-73
2023/12/02 07:55:26;;;;;;;133.10;42.17;;;;;;;;;;5066348;28;20574;-74
2023/12/02 07:57:53;;;;;;;124.23;41.07;;;;;;;;;;5063759;28;20204;-74
2023/12/02 08:00:20;;;;;;;457.93;131.40;;;;;;;;;;5063709;28;20200;-74
2023/12/02 08:02:48;;;;;;;464.60;133.50;;;;;;;;;;5065649;28;20199;-74
2023/12/02 08:05:15;;;;;;;163.43;51.00;;;;;;;;;;5065955;28;20199;-74
2023/12/02 08:07:46;;;;;;;146.60;44.27;;;;;;;;;;5061318;28;20272;-74
2023/12/02 08:10:13;;;;;;;145.77;48.57;;;;;;;;;;5074375;28;20196;-74
2023/12/02 08:12:40;;;;;;;191.13;57.47;;;;;;;;;;5075119;28;20200;-74
2023/12/02 08:15:07;;;;;;;139.90;42.97;;;;;;;;;;5075627;28;20294;-74
2023/12/02 08:17:35;;;;;;;145.97;45.43;;;;;;;;;;5073960;28;20200;-74
2023/12/02 08:20:03;;;;;;;209.33;67.67;;;;;;;;;;5068443;28;20184;-74
2023/12/02 08:22:31;;;;;;;194.53;62.83;;;;;;;;;;5064753;28;20191;-74
2023/12/02 08:24:58;;;;;;;279.83;85.37;;;;;;;;;;5061979;28;20230;-74
2023/12/02 08:27:25;;;;;;;198.80;64.87;;;;;;;;;;5070638;28;20273;-73
2023/12/02 08:29:52;;;;;;;156.93;48.57;;;;;;;;;;5065658;28;20224;-73
2023/12/02 08:32:19;;;;;;;144.60;50.33;;;;;;;;;;5064108;28;20234;-73
2023/12/02 08:34:46;;;;;;;207.27;67.80;;;;;;;;;;5063328;28;20216;-73
2023/12/02 08:37:14;;;;;;;212.07;72.43;;;;;;;;;;5065351;28;20703;-74
2023/12/02 08:39:41;;;;;;;206.80;64.57;;;;;;;;;;5069248;28;20231;-73
2023/12/02 08:42:08;;;;;;;227.13;69.40;;;;;;;;;;5064470;28;20637;-73
2023/12/02 08:44:37;;;;;;;153.77;48.07;;;;;;;;;;5067990;28;20246;-73
2023/12/02 08:47:06;;;;;;;172.03;55.27;;;;;;;;;;5062067;28;20227;-73
2023/12/02 08:49:33;;;;;;;163.00;54.57;;;;;;;;;;5054461;28;20264;-73
2023/12/02 08:52:05;;;;;;;142.37;45.17;;;;;;;;;;5054271;28;20227;-73
2023/12/02 08:54:32;;;;;;;129.57;43.53;;;;;;;;;;5055045;28;20278;-73
2023/12/02 08:56:59;;;;;;;250.40;81.53;;;;;;;;;;5070851;28;20211;-73
2023/12/02 08:59:26;;;;;;;128.23;47.90;;;;;;;;;;5069481;28;20228;-73
2023/12/02 09:01:54;;;;;;;122.87;41.27;;;;;;;;;;5053958;28;20621;-73
2023/12/02 09:04:21;;;;;;;122.90;41.63;;;;;;;;;;5053692;28;20326;-74
2023/12/02 09:06:48;;;;;;;146.17;44.57;;;;;;;;;;5069540;28;20602;-73
2023/12/02 09:09:15;;;;;;;126.57;41.13;;;;;;;;;;5073778;28;20250;-73
2023/12/02 09:11:42;;;;;;;124.37;42.73;;;;;;;;;;5068702;28;20723;-73
2023/12/02 09:14:10;;;;;;;142.57;44.57;;;;;;;;;;5069521;28;20231;-73
2023/12/02 09:16:38;;;;;;;122.40;41.13;;;;;;;;;;5069523;28;20728;-73
2023/12/02 09:19:29;;;;;;;134.23;42.00;;;;;;;;;;5061350;28;20232;-73
2023/12/02 09:21:56;;;;;;;126.90;40.63;;;;;;;;;;5065689;28;20227;-73
2023/12/02 09:24:38;;;;;;;133.27;42.53;;;;;;;;;;5069986;28;20245;-73
2023/12/02 09:27:07;;;;;;;125.13;42.40;;;;;;;;;;5071626;28;20227;-73
2023/12/02 09:29:40;;;;;;;125.30;42.90;;;;;;;;;;5073365;28;20236;-73
2023/12/02 09:32:37;;;;;;;115.47;41.23;;;;;;;;;;5070426;28;20224;-73
2023/12/02 09:35:04;;;;;;;114.30;38.13;;;;;;;;;;5069515;28;20246;-73
2023/12/02 09:37:49;;;;;;;121.70;40.67;;;;;;;;;;5066101;28;20255;-73
2023/12/02 09:40:23;;;;;;;116.97;37.50;;;;;;;;;;5053308;28;20739;-73
2023/12/02 09:43:15;;;;;;;123.27;40.83;;;;;;;;;;5056694;28;20219;-73
2023/12/02 09:46:17;;;;;;;106.60;37.90;;;;;;;;;;5072519;28;20623;-74
2023/12/02 09:49:13;;;;;;;128.37;41.10;;;;;;;;;;5062006;28;20218;-74
2023/12/02 09:52:02;;;;;;;124.57;41.37;;;;;;;;;;5071820;28;20227;-75
2023/12/02 09:54:49;;;;;;;132.37;41.27;;;;;;;;;;5081444;28;20268;-75
2023/12/02 09:57:25;;;;;;;112.20;38.70;;;;;;;;;;5073896;28;20222;-75
2023/12/02 10:00:05;;;;;;;132.60;41.60;;;;;;;;;;5061418;28;20578;-74
2023/12/02 10:02:46;;;;;;;129.57;39.10;;;;;;;;;;5057727;28;20219;-74
2023/12/02 10:05:15;;;;;;;127.10;39.13;;;;;;;;;;5058704;28;20254;-75
2023/12/02 10:07:55;;;;;;;122.77;39.83;;;;;;;;;;5058681;28;20235;-74
2023/12/02 10:10:25;;;;;;;124.50;39.17;;;;;;;;;;5061211;28;20239;-75
2023/12/02 10:13:07;;;;;;;121.87;40.53;;;;;;;;;;5059066;28;20221;-74
2023/12/02 10:15:35;;;;;;;128.60;40.47;;;;;;;;;;5062091;28;20282;-75
2023/12/02 10:18:13;;;;;;;129.00;42.97;;;;;;;;;;5061057;28;20227;-75
2023/12/02 10:20:42;;;;;;;130.47;43.10;;;;;;;;;;5054418;28;20264;-74
2023/12/02 10:23:31;;;;;;;133.83;41.50;;;;;;;;;;5064742;28;20238;-74
2023/12/02 10:26:08;;;;;;;113.83;39.57;;;;;;;;;;5055875;28;20231;-75
2023/12/02 10:28:54;;;;;;;135.93;43.20;;;;;;;;;;5055576;28;20225;-74
2023/12/02 10:31:29;;;;;;;132.00;41.97;;;;;;;;;;5052246;28;20240;-74
2023/12/02 10:34:52;;;;;;;126.30;39.00;;;;;;;;;;5052765;28;20276;-74
2023/12/02 10:37:23;;;;;;;126.33;40.40;;;;;;;;;;5021385;28;20617;-75
2023/12/02 10:39:51;;;;;;;129.10;44.47;;;;;;;;;;5013305;28;20282;-74
2023/12/02 10:42:26;;;;;;;131.93;42.07;;;;;;;;;;5009711;28;20251;-75
2023/12/02 10:45:05;;;;;;;121.10;39.27;;;;;;;;;;5018917;28;20224;-74
2023/12/02 10:47:32;;;;;;;123.63;40.87;;;;;;;;;;5016261;28;20282;-74
2023/12/02 10:50:00;;;;;;;121.37;41.20;;;;;;;;;;5009004;28;20312;-74
2023/12/02 10:52:28;;;;;;;112.80;41.70;;;;;;;;;;5027877;28;20239;-74
2023/12/02 10:55:01;;;;;;;115.60;39.23;;;;;;;;;;5014081;28;20256;-74
2023/12/02 10:57:29;;;;;;;134.30;43.20;;;;;;;;;;5012814;28;20282;-74
2023/12/02 11:00:06;;;;;;;124.47;39.90;;;;;;;;;;4999894;28;20222;-75
2023/12/02 11:02:38;;;;;;;112.90;38.30;;;;;;;;;;5005850;28;20227;-75
2023/12/02 11:05:20;;;;;;;134.67;42.23;;;;;;;;;;5013443;28;20228;-75
2023/12/02 11:07:52;;;;;;;118.53;40.93;;;;;;;;;;5031909;28;20239;-75
2023/12/02 11:10:45;;;;;;;109.47;38.63;;;;;;;;;;5071003;28;20302;-75
2023/12/02 11:13:18;;;;;;;121.03;39.97;;;;;;;;;;5046596;28;20282;-75
2023/12/02 11:15:52;;;;;;;139.60;46.10;;;;;;;;;;5055619;28;20224;-75
2023/12/02 11:18:32;;;;;;;112.20;37.47;;;;;;;;;;5056409;28;20219;-75
2023/12/02 11:21:04;;;;;;;106.63;37.07;;;;;;;;;;5068510;28;20588;-75
2023/12/02 11:23:40;;;;;;;111.10;36.97;;;;;;;;;;5062483;28;20595;-75
2023/12/02 11:26:23;;;;;;;119.80;37.77;;;;;;;;;;5059452;28;20294;-75
2023/12/02 11:29:19;;;;;;;104.97;34.40;;;;;;;;;;5058744;28;20699;-75
2023/12/02 11:32:08;;;;;;;101.53;33.73;;;;;;;;;;5066677;28;20751;-75
2023/12/02 11:35:13;;;;;;;95.10;30.47;;;;;;;;;;5061812;28;20264;-75
2023/12/02 11:38:16;;;;;;;98.17;35.33;;;;;;;;;;5074848;28;20583;-75
2023/12/02 11:41:05;;;;;;;107.53;35.53;;;;;;;;;;5060451;28;21352;-75
2023/12/02 11:43:54;;;;;;;107.10;33.93;;;;;;;;;;5063159;28;20227;-75
2023/12/02 11:46:24;;;;;;;109.27;35.60;;;;;;;;;;5071567;28;20226;-75
2023/12/02 11:49:10;;;;;;;94.87;33.67;;;;;;;;;;5056861;28;20281;-75
2023/12/02 11:52:02;;;;;;;100.63;33.70;;;;;;;;;;5065988;28;20273;-75
2023/12/02 11:54:49;;;;;;;105.10;31.17;;;;;;;;;;5057290;28;20701;-75
2023/12/02 11:57:22;;;;;;;90.40;31.10;;;;;;;;;;5065661;28;20243;-75
2023/12/02 12:00:09;;;;;;;95.27;30.43;;;;;;;;;;5066939;28;20226;-75
2023/12/02 12:02:40;;;;;;;82.13;30.07;;;;;;;;;;5055330;28;20235;-75
2023/12/02 12:05:31;;;;;;;85.47;30.43;;;;;;;;;;5060683;28;20231;-75
2023/12/02 12:08:13;;;;;;;87.43;29.03;;;;;;;;;;5068772;28;20301;-75
2023/12/02 12:10:41;;;;;;;92.60;28.87;;;;;;;;;;5063138;28;20596;-75
2023/12/02 12:13:11;;;;;;;85.13;28.03;;;;;;;;;;5044044;28;20231;-75
2023/12/02 12:15:38;;;;;;;87.53;28.87;;;;;;;;;;5063108;28;20239;-75
2023/12/02 12:18:05;;;;;;;90.53;31.87;;;;;;;;;;5069429;28;20235;-74
2023/12/02 12:20:32;;;;;;;102.77;32.63;;;;;;;;;;5056690;28;20220;-74
2023/12/02 12:23:00;;;;;;;95.93;30.80;;;;;;;;;;5067935;28;20294;-74
2023/12/02 12:25:31;;;;;;;89.47;29.23;;;;;;;;;;5050985;28;20253;-75
2023/12/02 12:28:05;;;;;;;94.63;26.07;;;;;;;;;;5070541;28;20711;-74
2023/12/02 12:30:45;;;;;;;74.73;24.10;;;;;;;;;;5068040;28;20227;-74
2023/12/02 12:33:17;;;;;;;63.43;20.23;;;;;;;;;;5058593;28;20692;-75
2023/12/02 12:35:46;;;;;;;76.90;22.97;;;;;;;;;;5059461;28;20238;-74
2023/12/02 12:38:14;;;;;;;69.93;25.50;;;;;;;;;;5070352;28;20231;-75
2023/12/02 12:40:42;;;;;;;77.93;25.67;;;;;;;;;;5057449;28;20219;-74
2023/12/02 12:43:13;;;;;;;78.27;25.13;;;;;;;;;;5071372;28;20224;-74
2023/12/02 12:45:41;;;;;;;67.37;22.77;;;;;;;;;;5061824;28;20633;-74
2023/12/02 12:48:10;;;;;;;68.63;21.93;;;;;;;;;;5065161;28;20247;-74
2023/12/02 12:50:38;;;;;;;69.70;21.57;;;;;;;;;;5069065;28;20299;-74
2023/12/02 12:53:11;;;;;;;59.97;21.40;;;;;;;;;;5060655;28;20235;-74
2023/12/02 12:55:43;;;;;;;65.57;22.20;;;;;;;;;;5066036;28;20223;-74
2023/12/02 12:58:15;;;;;;;53.07;19.37;;;;;;;;;;5056350;28;20240;-75
2023/12/02 13:00:47;;;;;;;60.93;19.63;;;;;;;;;;5061993;28;20266;-74
2023/12/02 13:03:28;;;;;;;51.80;17.57;;;;;;;;;;5064659;28;20251;-75
2023/12/02 13:06:16;;;;;;;59.73;20.47;;;;;;;;;;5054222;28;20645;-74
2023/12/02 13:09:03;;;;;;;66.80;21.00;;;;;;;;;;5052591;28;20247;-74
2023/12/02 13:11:33;;;;;;;60.57;20.47;;;;;;;;;;5072248;28;20269;-74
2023/12/02 13:14:06;;;;;;;60.70;19.87;;;;;;;;;;5073461;28;20250;-74
2023/12/02 13:16:34;;;;;;;57.90;19.17;;;;;;;;;;5072459;28;20294;-74
2023/12/02 13:19:01;;;;;;;63.00;22.37;;;;;;;;;;5072227;28;20219;-74
2023/12/02 13:21:30;;;;;;;64.57;22.07;;;;;;;;;;5073563;28;20723;-74
2023/12/02 13:23:59;;;;;;;67.50;21.53;;;;;;;;;;5072760;28;20238;-74
2023/12/02 13:26:32;;;;;;;48.43;18.57;;;;;;;;;;5053264;28;20599;-74
2023/12/02 13:29:04;;;;;;;64.90;20.80;;;;;;;;;;5062721;28;20239;-74
2023/12/02 13:31:40;;;;;;;59.70;20.20;;;;;;;;;;5072118;28;20298;-74
2023/12/02 13:34:07;;;;;;;58.50;19.90;;;;;;;;;;5066433;28;20232;-74
2023/12/02 13:36:39;;;;;;;60.17;19.90;;;;;;;;;;5052325;28;20223;-74
2023/12/02 13:39:25;;;;;;;41.50;11.97;;;;;;;;;;5059255;28;20227;-74
2023/12/02 13:41:54;;;;;;;51.63;17.33;;;;;;;;;;5066334;28;20719;-73
2023/12/02 13:44:22;;;;;;;48.83;16.87;;;;;;;;;;5070211;28;20773;-73
2023/12/02 13:46:50;;;;;;;37.07;13.17;;;;;;;;;;5053056;28;20228;-74
2023/12/02 13:49:39;;;;;;;51.50;15.70;;;;;;;;;;5051360;28;20243;-75
2023/12/02 13:52:18;;;;;;;36.97;13.67;;;;;;;;;;5057975;28;20280;-75
2023/12/02 13:55:06;;;;;;;38.43;13.87;;;;;;;;;;5052964;28;20247;-75
2023/12/02 13:57:42;;;;;;;44.87;14.50;;;;;;;;;;5071622;28;20285;-74
2023/12/02 14:00:11;;;;;;;49.37;16.80;;;;;;;;;;5073094;28;20300;-74
2023/12/02 14:02:41;;;;;;;50.77;16.57;;;;;;;;;;5062359;28;20568;-75
2023/12/02 14:05:36;;;;;;;37.07;14.30;;;;;;;;;;5072922;28;20696;-74
2023/12/02 14:08:04;;;;;;;47.80;14.67;;;;;;;;;;5072986;28;20310;-75
2023/12/02 14:10:32;;;;;;;43.13;15.67;;;;;;;;;;5064529;28;21651;-75
2023/12/02 14:13:12;;;;;;;47.60;16.27;;;;;;;;;;5065684;28;20268;-75
2023/12/02 14:16:07;;;;;;;44.27;14.30;;;;;;;;;;5053942;28;20235;-74
2023/12/02 14:19:02;;;;;;;44.97;15.27;;;;;;;;;;5059685;28;20215;-74
2023/12/02 14:22:07;;;;;;;38.97;15.17;;;;;;;;;;5076572;28;20231;-74
2023/12/02 14:24:57;;;;;;;41.47;13.90;;;;;;;;;;5074551;28;20307;-74
2023/12/02 14:27:25;;;;;;;40.17;15.00;;;;;;;;;;5078552;28;20280;-74